logo
Rechercher aéroport 
image banner adimage banner adimage banner ad
image banner ad

FACAPE - Cape Blue Mine

Situé à , South Africa

ICAO - , IATA -

Données fournies par Airmate  

Information générale

Coordonnées: S29°20'5" E22°15'53"
Élévation : 3051 feet MSL.
 
Voir autres Aéroports à Northern Cape

Données opérationnelles

Special qualification required
Heure actuelle UTC:
Heure actuelle locale:
Météo à : - ( 0 km )
METAR: KM19 251806Z AUTO 04004KT 10SM BKN029 28/22 A2987 RMK AO2 $
Voir NOTAMs / SUP AIP / TFR affectant cet aéroport [VIEW]
Fréquences de communication: [VIEW]

Pistes:

Identifiant RWYQFULongueur (ft)Largeur (ft)SurfaceLDA (ft)
0558°328149SAND
23238°328149SAND
15133°190333SAND
33313°190333SAND

Coordonnées de l'aéroport

Adresse: South Africa

Vue satellite de FACAPE